Time;durP1;ratioP1;P1;durP2;ratioP2;P2;SDS_P1;SDS_P2;PMS_P1;PMS_P2;Temp;Humidity;BMP_temperature;BMP_pressure;BME280_temperature;BME280_humidity;BME280_pressure;Samples;Min_cycle;Max_cycle;Signal;HPM_P1;HPM_P2
2022/11/20 00:02:00;;;;;;;72.20;60.40;;;21.30;56.10;;;;;;4694341;59;21096;-44
2022/11/20 00:07:01;;;;;;;71.32;58.47;;;21.30;56.10;;;;;;4743550;55;21004;-44
2022/11/20 00:12:02;;;;;;;72.85;60.58;;;21.30;56.00;;;;;;4694882;59;21020;-42
2022/11/20 00:17:03;;;;;;;71.05;59.38;;;21.30;56.10;;;;;;4694505;59;21051;-44
2022/11/20 00:22:03;;;;;;;68.45;56.95;;;21.30;56.10;;;;;;4886228;55;21135;-48
2022/11/20 00:27:04;;;;;;;66.72;57.40;;;21.30;56.00;;;;;;4787876;55;21561;-40
2022/11/20 00:32:05;;;;;;;66.00;55.67;;;21.30;56.00;;;;;;4828067;55;21462;-45
2022/11/20 00:37:06;;;;;;;63.85;55.60;;;21.30;56.00;;;;;;4694496;59;21020;-42
2022/11/20 00:42:07;;;;;;;64.45;54.50;;;21.30;56.00;;;;;;4694622;59;21079;-42
2022/11/20 00:47:07;;;;;;;62.67;52.62;;;21.30;56.10;;;;;;4694675;59;21611;-48
2022/11/20 00:52:08;;;;;;;61.85;54.03;;;21.30;56.00;;;;;;5144072;55;21067;-39
2022/11/20 00:57:09;;;;;;;61.72;53.38;;;21.30;56.40;;;;;;4771204;55;21057;-34
2022/11/20 01:02:10;;;;;;;60.63;51.10;;;21.20;55.90;;;;;;4810889;55;21095;-39
2022/11/20 01:07:10;;;;;;;60.25;51.22;;;21.20;55.90;;;;;;4808581;55;21044;-50
2022/11/20 01:12:11;;;;;;;59.42;50.70;;;21.20;55.90;;;;;;4711947;55;21553;-42
2022/11/20 01:17:12;;;;;;;57.33;49.35;;;21.20;55.80;;;;;;4844337;55;21541;-41
2022/11/20 01:22:13;;;;;;;56.15;48.10;;;21.30;55.90;;;;;;4714203;55;21083;-46
2022/11/20 01:27:13;;;;;;;56.13;47.92;;;21.30;55.80;;;;;;4711629;55;21024;-42
2022/11/20 01:32:14;;;;;;;58.28;49.75;;;21.30;55.90;;;;;;4694959;59;21024;-46
2022/11/20 01:37:15;;;;;;;57.42;48.97;;;21.20;55.90;;;;;;4964857;55;21021;-44
2022/11/20 01:47:43;;;;;;;53.85;46.05;;;21.20;55.80;;;;;;4694614;55;21089;-45
2022/11/20 01:53:02;;;;;;;53.08;45.50;;;21.20;55.80;;;;;;5102611;55;21021;-45
2022/11/20 01:58:03;;;;;;;52.83;45.33;;;21.20;55.70;;;;;;5055555;55;21015;-45
2022/11/20 02:03:12;;;;;;;51.67;44.38;;;21.30;55.80;;;;;;4694246;59;21095;-47
2022/11/20 02:08:14;;;;;;;50.25;44.10;;;21.20;55.70;;;;;;4772588;55;21629;-41
2022/11/20 02:18:36;;;;;;;51.08;44.15;;;21.20;55.70;;;;;;4694053;55;21080;-44
2022/11/20 02:23:43;;;;;;;49.03;41.70;;;21.30;55.80;;;;;;4961005;55;21063;-42
2022/11/20 02:28:44;;;;;;;45.55;40.30;;;21.20;55.70;;;;;;4694855;59;21007;-46
2022/11/20 02:33:44;;;;;;;48.87;42.08;;;21.20;55.70;;;;;;4850029;55;21486;-42
2022/11/20 02:38:45;;;;;;;46.83;40.45;;;21.20;56.30;;;;;;4694307;59;21015;-47
2022/11/20 02:43:46;;;;;;;46.10;39.63;;;21.20;55.70;;;;;;4694654;59;21016;-34
2022/11/20 02:48:47;;;;;;;47.08;41.08;;;21.20;55.60;;;;;;4694833;56;21015;-46
2022/11/20 02:53:48;;;;;;;45.03;39.50;;;21.20;55.60;;;;;;4796582;55;21020;-51
2022/11/20 02:58:48;;;;;;;44.03;38.40;;;21.20;55.70;;;;;;4985051;55;21071;-44
2022/11/20 03:03:49;;;;;;;43.92;37.88;;;21.30;55.70;;;;;;4726451;55;21051;-42
2022/11/20 03:08:50;;;;;;;46.83;40.83;;;21.20;55.60;;;;;;4808117;55;21012;-41
2022/11/20 03:13:51;;;;;;;42.60;38.00;;;21.20;55.70;;;;;;4997610;55;21052;-29
2022/11/20 03:18:53;;;;;;;43.95;38.15;;;21.20;55.70;;;;;;4860081;55;20997;-37
2022/11/20 03:23:54;;;;;;;43.63;37.47;;;21.20;55.70;;;;;;4755236;55;21494;-44
2022/11/20 03:28:58;;;;;;;41.80;36.20;;;21.20;55.60;;;;;;4800486;55;21080;-47
2022/11/20 03:33:59;;;;;;;40.33;35.67;;;21.20;55.60;;;;;;4748092;55;21012;-49
2022/11/20 03:39:00;;;;;;;40.78;34.65;;;21.20;55.50;;;;;;4850709;55;21080;-44
2022/11/20 03:44:03;;;;;;;38.97;34.45;;;21.20;55.60;;;;;;4711693;55;21079;-42
2022/11/20 03:49:04;;;;;;;38.50;34.10;;;21.20;55.50;;;;;;4695049;59;21080;-35
2022/11/20 03:54:09;;;;;;;37.90;33.10;;;21.20;55.50;;;;;;4695314;59;21538;-37
2022/11/20 03:59:10;;;;;;;39.08;34.35;;;21.20;55.50;;;;;;4993361;55;21595;-45
2022/11/20 04:04:11;;;;;;;36.38;32.08;;;21.20;55.50;;;;;;4713962;55;21589;-39
2022/11/20 04:09:13;;;;;;;35.80;31.62;;;21.20;55.50;;;;;;4711259;55;21063;-40
2022/11/20 04:14:15;;;;;;;35.63;31.70;;;21.20;55.50;;;;;;4903588;55;21047;-49
2022/11/20 04:19:17;;;;;;;37.00;32.25;;;21.20;55.50;;;;;;4898295;55;21039;-37
2022/11/20 04:24:17;;;;;;;34.85;31.00;;;21.20;55.40;;;;;;4695073;59;21084;-42
2022/11/20 04:29:18;;;;;;;33.65;29.70;;;21.20;55.40;;;;;;4695528;59;21015;-47
2022/11/20 04:34:19;;;;;;;34.13;30.23;;;21.20;55.50;;;;;;4952946;55;21068;-40
2022/11/20 04:39:20;;;;;;;33.22;29.42;;;21.20;55.40;;;;;;4950962;55;21027;-39
2022/11/20 04:44:21;;;;;;;34.08;29.48;;;21.20;55.30;;;;;;4695089;59;21019;-37
2022/11/20 04:49:21;;;;;;;33.15;29.40;;;21.20;55.30;;;;;;4694959;59;21556;-30
2022/11/20 04:54:22;;;;;;;33.45;29.27;;;21.20;55.40;;;;;;5095408;55;21123;-41
2022/11/20 04:59:23;;;;;;;33.28;29.63;;;21.20;56.00;;;;;;4694029;59;21075;-37
2022/11/20 05:04:24;;;;;;;31.95;27.83;;;21.20;55.40;;;;;;4702846;55;21044;-45
2022/11/20 05:09:25;;;;;;;30.27;27.00;;;21.20;55.30;;;;;;4694464;59;21008;-48
2022/11/20 05:14:26;;;;;;;30.50;26.83;;;21.20;55.30;;;;;;4784265;55;21004;-45
2022/11/20 05:19:26;;;;;;;30.80;27.50;;;21.20;55.30;;;;;;4952679;55;21000;-43
2022/11/20 05:24:27;;;;;;;29.45;26.25;;;21.20;55.20;;;;;;4844704;55;21046;-45
2022/11/20 05:29:28;;;;;;;29.23;26.12;;;21.20;55.20;;;;;;4694909;59;21067;-28
2022/11/20 05:34:29;;;;;;;29.87;26.67;;;21.20;55.20;;;;;;4810683;55;21056;-46
2022/11/20 05:39:30;;;;;;;29.45;26.25;;;21.20;55.20;;;;;;4693660;59;20988;-47
2022/11/20 05:44:31;;;;;;;28.12;24.92;;;21.20;55.10;;;;;;4838999;55;21466;-42
2022/11/20 05:49:32;;;;;;;28.95;25.88;;;21.20;55.50;;;;;;4766347;55;21020;-45
2022/11/20 05:54:33;;;;;;;29.33;25.45;;;21.20;55.10;;;;;;4694814;59;21035;-39
2022/11/20 05:59:33;;;;;;;27.50;24.55;;;21.20;55.10;;;;;;4694166;55;21067;-37
2022/11/20 06:04:34;;;;;;;26.92;24.02;;;21.20;55.10;;;;;;4756850;55;20984;-37
2022/11/20 06:09:35;;;;;;;27.80;24.80;;;21.20;55.00;;;;;;4803505;55;21140;-47
2022/11/20 06:14:36;;;;;;;26.40;23.48;;;21.20;55.00;;;;;;4767815;55;21064;-46
2022/11/20 06:19:37;;;;;;;26.25;23.42;;;21.20;55.00;;;;;;4748654;55;21043;-42
2022/11/20 06:24:37;;;;;;;26.17;23.05;;;21.20;55.10;;;;;;5051553;55;21004;-41
2022/11/20 06:29:38;;;;;;;25.88;22.80;;;21.20;55.00;;;;;;4899577;55;21027;-45
2022/11/20 06:34:39;;;;;;;24.73;22.02;;;21.20;55.60;;;;;;4955138;55;21087;-43
2022/11/20 06:39:40;;;;;;;26.85;23.83;;;21.20;55.00;;;;;;4899270;55;21095;-46
2022/11/20 06:44:40;;;;;;;25.20;22.50;;;21.20;54.90;;;;;;4855373;55;21521;-40
2022/11/20 06:49:41;;;;;;;25.67;22.87;;;21.20;54.90;;;;;;4838058;55;21494;-46
2022/11/20 06:54:42;;;;;;;25.37;22.62;;;21.20;54.80;;;;;;4987577;55;21016;-40
2022/11/20 06:59:43;;;;;;;24.48;21.87;;;21.20;54.90;;;;;;4716851;55;21048;-40
2022/11/20 07:04:44;;;;;;;24.48;21.87;;;21.20;54.80;;;;;;4694887;59;21012;-42
2022/11/20 07:09:44;;;;;;;24.35;21.70;;;21.20;54.80;;;;;;4721274;55;21016;-48
2022/11/20 07:14:45;;;;;;;24.08;21.55;;;21.20;54.80;;;;;;4823041;55;21053;-46
2022/11/20 07:19:46;;;;;;;24.52;21.15;;;21.20;54.80;;;;;;4798181;55;21509;-40
2022/11/20 07:24:48;;;;;;;25.67;22.73;;;21.20;54.80;;;;;;4733945;55;21475;-43
2022/11/20 07:29:49;;;;;;;25.10;22.10;;;21.20;54.70;;;;;;5048223;55;21548;-42
2022/11/20 07:34:50;;;;;;;24.42;21.83;;;21.20;55.40;;;;;;4766638;55;21004;-47
2022/11/20 07:39:50;;;;;;;26.10;22.37;;;21.20;55.20;;;;;;4743750;55;21028;-41
2022/11/20 07:44:51;;;;;;;24.48;21.73;;;21.20;54.70;;;;;;4829534;55;21075;-35
2022/11/20 07:49:52;;;;;;;25.27;22.58;;;21.20;54.60;;;;;;4850119;55;21008;-47
2022/11/20 07:54:53;;;;;;;24.52;21.92;;;21.20;54.70;;;;;;4952761;55;21117;-47
2022/11/20 07:59:53;;;;;;;24.92;22.23;;;21.20;54.60;;;;;;4693985;59;21553;-39
2022/11/20 08:04:54;;;;;;;26.58;22.87;;;21.20;54.60;;;;;;4732513;55;21519;-46
2022/11/20 08:09:55;;;;;;;24.30;21.75;;;21.20;54.60;;;;;;4772208;55;21004;-42
2022/11/20 08:14:58;;;;;;;24.45;21.83;;;21.20;54.50;;;;;;4770655;55;20988;-39
2022/11/20 08:19:59;;;;;;;25.37;22.50;;;21.20;54.50;;;;;;4718805;55;21581;-47
2022/11/20 08:25:00;;;;;;;26.67;23.58;;;21.20;54.60;;;;;;4777326;55;20992;-40
2022/11/20 08:30:01;;;;;;;28.42;24.37;;;21.20;54.60;;;;;;4694709;59;20985;-38
2022/11/20 08:35:01;;;;;;;27.42;23.95;;;21.20;54.50;;;;;;4774616;55;21016;-41
2022/11/20 08:40:03;;;;;;;26.48;23.20;;;21.20;54.50;;;;;;4708349;55;21142;-38
2022/11/20 08:45:04;;;;;;;29.00;24.35;;;21.20;54.50;;;;;;4787099;55;21067;-46
2022/11/20 08:50:06;;;;;;;29.35;24.75;;;21.20;54.40;;;;;;4956160;55;20984;-47
2022/11/20 08:55:08;;;;;;;28.00;24.02;;;21.20;54.40;;;;;;4739024;55;21073;-37
2022/11/20 09:00:11;;;;;;;27.60;24.27;;;21.20;54.40;;;;;;4775433;55;21024;-38
2022/11/20 09:05:12;;;;;;;29.05;25.27;;;21.20;54.40;;;;;;4695002;57;21020;-38
2022/11/20 09:10:13;;;;;;;30.62;26.27;;;21.20;54.40;;;;;;4786851;55;21004;-47
2022/11/20 09:15:13;;;;;;;30.50;26.45;;;21.10;54.30;;;;;;4894279;55;21011;-48
2022/11/20 09:20:14;;;;;;;30.00;25.95;;;21.20;54.60;;;;;;4762128;55;21483;-46
2022/11/20 09:25:17;;;;;;;28.98;25.42;;;21.20;54.30;;;;;;4715158;55;21544;-46
2022/11/20 09:30:18;;;;;;;30.05;25.17;;;21.20;54.30;;;;;;4840135;55;21138;-44
2022/11/20 09:35:19;;;;;;;31.98;27.73;;;21.20;54.30;;;;;;4837060;55;21573;-45
2022/11/20 09:40:29;;;;;;;34.38;28.80;;;21.20;54.20;;;;;;4855736;55;21111;-46
2022/11/20 09:46:07;;;;;;;32.42;27.08;;;21.20;54.30;;;;;;4694704;55;21489;-44
2022/11/20 09:52:54;;;;;;;33.95;29.35;;;21.20;54.20;;;;;;4732198;55;21092;-46
2022/11/20 09:57:54;;;;;;;;;;;21.20;54.20;;;;;;4867320;55;21072;-48
2022/11/20 10:03:05;;;;;;;37.47;30.77;;;21.10;54.10;;;;;;4839653;55;20113;-45
2022/11/20 10:08:31;;;;;;;38.08;31.73;;;21.10;54.10;;;;;;4865241;55;21479;-47
2022/11/20 10:15:10;;;;;;;38.67;32.63;;;21.20;54.10;;;;;;4757297;55;21541;-44
2022/11/20 10:20:19;;;;;;;44.42;34.55;;;21.10;54.50;;;;;;4949174;55;21059;-47
2022/11/20 10:25:25;;;;;;;44.15;35.80;;;21.20;54.00;;;;;;4820021;55;20993;-48
2022/11/20 10:30:26;;;;;;;43.42;37.22;;;21.10;54.00;;;;;;4730213;55;21032;-43
2022/11/20 10:35:49;;;;;;;44.08;36.65;;;21.10;54.00;;;;;;4762563;55;21043;-46
2022/11/20 10:41:24;;;;;;;47.47;38.13;;;21.10;54.00;;;;;;4812543;55;21000;-42
2022/11/20 10:46:29;;;;;;;44.75;37.80;;;21.20;54.10;;;;;;4864609;55;21486;-48
2022/11/20 10:53:08;;;;;;;47.95;38.92;;;21.20;54.00;;;;;;4789219;55;21056;-49
2022/11/20 11:00:46;;;;;;;52.13;41.28;;;21.10;54.00;;;;;;4803185;55;21076;-37
2022/11/20 11:05:58;;;;;;;52.25;41.40;;;21.10;53.90;;;;;;4891410;55;21083;-34
2022/11/20 11:11:29;;;;;;;52.30;42.15;;;21.10;53.90;;;;;;4694474;59;21089;-43
2022/11/20 11:16:30;;;;;;;54.97;43.78;;;21.10;53.90;;;;;;4694607;56;21008;-45
2022/11/20 11:21:31;;;;;;;56.10;43.70;;;21.10;54.00;;;;;;4694456;59;21107;-42
2022/11/20 11:26:32;;;;;;;55.47;44.30;;;21.20;54.00;;;;;;4910549;55;21024;-43
2022/11/20 11:31:34;;;;;;;57.10;44.95;;;21.20;54.00;;;;;;4859427;55;21068;-40
2022/11/20 11:36:35;;;;;;;56.72;48.30;;;21.20;54.00;;;;;;5068652;55;21023;-45
2022/11/20 11:41:36;;;;;;;60.47;48.25;;;21.10;53.90;;;;;;4868274;55;21055;-34
2022/11/20 11:46:38;;;;;;;60.10;48.40;;;21.20;54.00;;;;;;4717684;55;21003;-40
2022/11/20 11:52:08;;;;;;;61.08;49.63;;;21.10;53.90;;;;;;4755863;55;21004;-42
2022/11/20 11:59:51;;;;;;;59.53;49.67;;;21.10;53.90;;;;;;5169756;55;21143;-37
2022/11/20 12:05:03;;;;;;;61.90;49.45;;;21.10;54.10;;;;;;4741179;55;21076;-37
2022/11/20 12:10:05;;;;;;;58.03;48.38;;;21.10;53.90;;;;;;4769326;55;21060;-44
2022/11/20 12:15:12;;;;;;;65.00;52.13;;;21.10;53.90;;;;;;4765385;55;20988;-45
2022/11/20 12:20:14;;;;;;;61.08;50.72;;;21.10;53.90;;;;;;4752245;55;21055;-42
2022/11/20 12:25:24;;;;;;;66.70;52.28;;;21.10;53.80;;;;;;4816379;55;21601;-40
2022/11/20 12:30:25;;;;;;;65.57;51.83;;;21.10;53.90;;;;;;4721633;55;21068;-46
2022/11/20 12:36:15;;;;;;;65.25;53.67;;;21.20;53.90;;;;;;4726221;55;20996;-44
2022/11/20 12:48:52;;;;;;;67.28;53.87;;;21.10;53.90;;;;;;4733559;55;20996;-44
2022/11/20 12:57:36;;;;;;;70.10;56.05;;;21.10;53.80;;;;;;4724050;55;21511;-44
2022/11/20 13:03:54;;;;;;;72.37;57.97;;;21.10;53.80;;;;;;4762441;55;21096;-43
2022/11/20 13:08:57;;;;;;;74.72;58.50;;;21.10;53.80;;;;;;4728338;55;21008;-48
2022/11/20 13:15:38;;;;;;;74.18;58.15;;;21.10;53.70;;;;;;5152496;55;21494;-45
2022/11/20 13:20:44;;;;;;;71.03;58.15;;;21.20;53.80;;;;;;4774126;55;21020;-41
2022/11/20 13:25:44;;;;;;;74.22;59.20;;;21.10;53.80;;;;;;4694866;59;20992;-42
2022/11/20 13:30:53;;;;;;;73.82;59.47;;;21.10;53.70;;;;;;4718873;55;21012;-43
2022/11/20 13:36:05;;;;;;;74.00;58.97;;;21.10;53.80;;;;;;5026084;55;21068;-46
2022/11/20 13:46:43;;;;;;;77.68;59.47;;;21.10;53.70;;;;;;4694377;55;21071;-43
2022/11/20 13:51:50;;;;;;;76.05;62.33;;;21.10;53.70;;;;;;4695103;59;21580;-49
2022/11/20 13:57:40;;;;;;;77.70;62.30;;;21.10;53.70;;;;;;4738212;55;21012;-46
2022/11/20 14:02:42;;;;;;;76.90;61.78;;;21.10;53.70;;;;;;4873947;55;21031;-42
2022/11/20 14:07:44;;;;;;;76.20;61.10;;;21.10;53.70;;;;;;4898337;55;21004;-44
2022/11/20 14:12:44;;;;;;;77.05;62.38;;;21.10;53.70;;;;;;4927551;55;21490;-39
2022/11/20 14:17:45;;;;;;;77.93;64.35;;;21.10;54.30;;;;;;4948862;55;21016;-39
2022/11/20 14:22:53;;;;;;;75.65;62.03;;;21.10;53.70;;;;;;4813631;55;21027;-49
2022/11/20 14:27:57;;;;;;;77.15;63.67;;;21.10;53.70;;;;;;4694678;59;21020;-48
2022/11/20 14:33:03;;;;;;;76.93;61.88;;;21.10;53.70;;;;;;4751377;55;21008;-44
2022/11/20 14:38:09;;;;;;;77.82;63.83;;;21.10;53.60;;;;;;4911756;55;21017;-49
2022/11/20 14:43:47;;;;;;;77.40;62.72;;;21.10;53.60;;;;;;4694700;55;21085;-47
2022/11/20 14:48:53;;;;;;;73.50;59.67;;;21.10;53.60;;;;;;4694269;59;20996;-47
2022/11/20 14:53:54;;;;;;;75.82;62.72;;;21.10;53.60;;;;;;4769688;55;21020;-47
2022/11/20 14:58:57;;;;;;;73.05;59.75;;;21.10;53.60;;;;;;4738310;55;21087;-38
2022/11/20 15:04:07;;;;;;;78.55;62.55;;;21.10;53.60;;;;;;4848957;55;21063;-46
2022/11/20 15:09:14;;;;;;;75.80;61.83;;;21.10;53.60;;;;;;4906442;55;21518;-45
2022/11/20 15:14:15;;;;;;;77.87;63.45;;;21.10;53.50;;;;;;5139813;55;21075;-40
2022/11/20 15:19:24;;;;;;;75.28;60.80;;;21.10;53.60;;;;;;4726102;55;21064;-43
2022/11/20 15:24:25;;;;;;;73.00;60.95;;;21.10;53.50;;;;;;4899065;55;21120;-41
2022/11/20 15:29:26;;;;;;;77.43;62.97;;;21.10;53.50;;;;;;4694874;59;21067;-47
2022/11/20 15:34:27;;;;;;;76.57;61.67;;;21.10;53.50;;;;;;4764650;55;21482;-47
2022/11/20 15:39:28;;;;;;;78.78;63.70;;;21.10;53.90;;;;;;4694087;59;21028;-38
2022/11/20 15:44:29;;;;;;;74.72;61.22;;;21.10;53.40;;;;;;4757921;55;21028;-44
2022/11/20 15:49:30;;;;;;;75.22;60.55;;;21.10;53.40;;;;;;4724283;55;21535;-45
2022/11/20 15:54:31;;;;;;;73.22;59.85;;;21.10;53.50;;;;;;4965054;55;21091;-43
2022/11/20 15:59:32;;;;;;;73.18;60.10;;;21.10;53.40;;;;;;4736753;55;21139;-36
2022/11/20 16:04:32;;;;;;;76.70;61.45;;;21.10;54.00;;;;;;4867653;55;21821;-46
2022/11/20 16:09:33;;;;;;;73.07;59.35;;;21.10;53.40;;;;;;4699972;55;21000;-42
2022/11/20 16:19:53;;;;;;;73.75;61.25;;;21.10;53.40;;;;;;4693761;55;21016;-46
2022/11/20 16:24:54;;;;;;;74.72;62.08;;;21.10;53.40;;;;;;4835501;55;21064;-38
2022/11/20 16:29:55;;;;;;;79.93;62.97;;;21.10;53.40;;;;;;4824008;55;20997;-44
2022/11/20 16:34:55;;;;;;;78.07;60.92;;;21.10;53.40;;;;;;4874246;55;21051;-47
2022/11/20 16:39:56;;;;;;;77.15;61.83;;;21.10;53.40;;;;;;4765589;55;21455;-42
2022/11/20 16:44:57;;;;;;;81.10;65.55;;;21.10;53.40;;;;;;5113057;55;21599;-47
2022/11/20 16:49:58;;;;;;;79.00;64.30;;;21.10;53.40;;;;;;4952800;55;21076;-43
2022/11/20 16:54:59;;;;;;;85.15;69.18;;;21.10;53.40;;;;;;4695052;59;21016;-43
2022/11/20 17:00:00;;;;;;;88.30;70.95;;;21.10;53.40;;;;;;4693852;59;21497;-48
2022/11/20 17:05:01;;;;;;;85.10;70.75;;;21.10;53.40;;;;;;4949955;55;21533;-47
2022/11/20 17:10:02;;;;;;;89.10;72.82;;;21.10;53.50;;;;;;4695044;59;21052;-50
2022/11/20 17:15:04;;;;;;;86.12;70.32;;;21.10;53.40;;;;;;4894796;55;21041;-43
2022/11/20 17:20:06;;;;;;;85.82;71.37;;;21.10;53.50;;;;;;4799420;55;21004;-39
2022/11/20 17:25:07;;;;;;;84.28;69.07;;;21.10;53.40;;;;;;4781637;55;20996;-37
2022/11/20 17:30:09;;;;;;;85.85;69.75;;;21.10;53.30;;;;;;4838349;55;21522;-45
2022/11/20 17:35:09;;;;;;;92.65;73.20;;;21.10;53.30;;;;;;4694341;59;21048;-48
2022/11/20 17:40:10;;;;;;;87.97;73.03;;;21.10;53.40;;;;;;4831525;55;21603;-45
2022/11/20 17:45:11;;;;;;;85.78;71.78;;;21.10;53.40;;;;;;4831125;55;21482;-41
2022/11/20 17:50:12;;;;;;;88.32;70.78;;;21.10;53.30;;;;;;4779007;55;21016;-49
2022/11/20 17:55:12;;;;;;;88.87;73.45;;;21.10;53.30;;;;;;4958963;55;21482;-42
2022/11/20 18:00:16;;;;;;;89.57;72.40;;;21.10;53.30;;;;;;4693773;59;21036;-45
2022/11/20 18:05:17;;;;;;;87.07;72.37;;;21.10;53.30;;;;;;4923981;55;20992;-39
2022/11/20 18:10:17;;;;;;;90.12;72.93;;;21.10;53.20;;;;;;4694822;59;21619;-50
2022/11/20 18:15:18;;;;;;;85.07;71.62;;;21.10;53.20;;;;;;4715591;55;21100;-46
2022/11/20 18:20:19;;;;;;;85.40;72.43;;;21.10;53.30;;;;;;4890794;55;21490;-46
2022/11/20 18:25:20;;;;;;;88.80;73.47;;;21.10;53.30;;;;;;4694534;59;21007;-46
2022/11/20 18:30:21;;;;;;;87.72;72.65;;;21.10;53.20;;;;;;4790346;55;21102;-39
2022/11/20 18:35:22;;;;;;;86.85;70.80;;;21.10;53.20;;;;;;4900013;55;21099;-40
2022/11/20 18:40:22;;;;;;;85.43;70.75;;;21.10;53.20;;;;;;4693690;59;21628;-47
2022/11/20 18:45:23;;;;;;;86.65;72.15;;;21.10;53.20;;;;;;4748862;55;21025;-35
2022/11/20 18:50:24;;;;;;;86.90;73.32;;;21.10;53.80;;;;;;4694867;55;21012;-45
2022/11/20 18:55:25;;;;;;;87.72;72.28;;;21.10;53.10;;;;;;4694835;59;21039;-44
2022/11/20 19:00:26;;;;;;;85.93;72.07;;;21.10;53.10;;;;;;4734216;55;21102;-46
2022/11/20 19:05:26;;;;;;;89.13;72.00;;;21.10;53.10;;;;;;4696170;55;21024;-43
2022/11/20 19:10:27;;;;;;;86.35;72.57;;;21.10;53.10;;;;;;5025282;55;21027;-36
2022/11/20 19:15:28;;;;;;;86.70;71.78;;;21.10;53.10;;;;;;4732186;55;21008;-41
2022/11/20 19:20:30;;;;;;;89.07;73.35;;;21.10;53.10;;;;;;4840704;55;21095;-39
2022/11/20 19:25:31;;;;;;;90.18;75.28;;;21.10;53.00;;;;;;4694888;59;21824;-44
2022/11/20 19:30:32;;;;;;;92.20;75.07;;;21.10;53.10;;;;;;4852621;55;21040;-47
2022/11/20 19:35:35;;;;;;;90.07;75.30;;;21.10;53.10;;;;;;4694841;59;21040;-52
2022/11/20 19:40:36;;;;;;;92.32;75.20;;;21.10;53.00;;;;;;4793074;55;21577;-44
2022/11/20 19:45:37;;;;;;;89.45;74.20;;;21.10;53.10;;;;;;4828954;55;21008;-37
2022/11/20 19:50:37;;;;;;;91.90;76.78;;;21.10;53.10;;;;;;4708891;55;21052;-45
2022/11/20 19:55:38;;;;;;;91.10;75.00;;;21.10;53.00;;;;;;4921578;55;21553;-48
2022/11/20 20:00:39;;;;;;;90.87;75.40;;;21.10;52.90;;;;;;4693884;59;21597;-46
2022/11/20 20:05:40;;;;;;;87.57;72.12;;;21.10;53.00;;;;;;4694686;59;21116;-44
2022/11/20 20:10:41;;;;;;;88.65;74.50;;;21.10;52.90;;;;;;4694984;59;21836;-44
2022/11/20 20:15:42;;;;;;;87.80;73.28;;;21.10;53.10;;;;;;4694828;59;21007;-46
2022/11/20 20:20:44;;;;;;;87.07;71.72;;;21.10;52.90;;;;;;4992649;55;21026;-38
2022/11/20 20:25:47;;;;;;;87.62;74.53;;;21.10;52.90;;;;;;4894799;55;20988;-47
2022/11/20 20:30:48;;;;;;;87.05;72.50;;;21.00;52.80;;;;;;4725894;55;21008;-42
2022/11/20 20:35:49;;;;;;;85.53;71.93;;;21.10;52.90;;;;;;4784423;55;21003;-48
2022/11/20 20:40:50;;;;;;;85.55;70.62;;;21.10;52.90;;;;;;4760792;55;21466;-44
2022/11/20 20:45:51;;;;;;;91.12;75.93;;;21.00;52.90;;;;;;4694813;59;21065;-46
2022/11/20 20:50:56;;;;;;;88.20;75.22;;;21.00;52.80;;;;;;4691430;59;21087;-46
2022/11/20 20:55:59;;;;;;;87.82;72.72;;;21.00;52.80;;;;;;4702757;55;20984;-43
2022/11/20 21:01:05;;;;;;;85.05;70.07;;;21.00;52.90;;;;;;5169485;55;21099;-48
2022/11/20 21:06:08;;;;;;;84.93;73.47;;;21.00;52.70;;;;;;4720669;55;21645;-48
2022/11/20 21:11:15;;;;;;;84.68;71.12;;;21.00;52.70;;;;;;4745899;55;21585;-46
2022/11/20 21:16:17;;;;;;;88.80;72.37;;;21.00;52.80;;;;;;4751354;55;21020;-45
2022/11/20 21:26:37;;;;;;;84.45;70.00;;;21.00;52.70;;;;;;4694614;55;21032;-35
2022/11/20 21:31:38;;;;;;;86.82;71.93;;;21.00;52.60;;;;;;4694866;59;21000;-44
2022/11/20 21:36:39;;;;;;;84.78;70.05;;;21.00;52.70;;;;;;4694937;59;21060;-49
2022/11/20 21:41:41;;;;;;;83.03;69.70;;;21.00;52.70;;;;;;4775815;55;21048;-47
2022/11/20 21:46:43;;;;;;;81.90;67.72;;;21.00;52.70;;;;;;4695160;59;21048;-39
2022/11/20 21:51:44;;;;;;;80.55;67.20;;;21.00;52.70;;;;;;4848535;55;20992;-43
2022/11/20 21:56:45;;;;;;;79.55;65.87;;;21.00;52.60;;;;;;4799561;55;21064;-40
2022/11/20 22:01:46;;;;;;;78.72;65.78;;;21.00;52.60;;;;;;4835996;55;21545;-48
2022/11/20 22:06:47;;;;;;;78.57;66.45;;;21.00;52.60;;;;;;4749846;55;21135;-48
2022/11/20 22:11:48;;;;;;;77.18;65.20;;;21.00;53.20;;;;;;4694806;59;21486;-42
2022/11/20 22:16:51;;;;;;;83.20;67.25;;;21.00;52.60;;;;;;4774359;55;21011;-45
2022/11/20 22:21:51;;;;;;;76.30;63.55;;;21.00;52.60;;;;;;4846542;55;21008;-44
2022/11/20 22:26:52;;;;;;;72.72;61.95;;;21.00;53.10;;;;;;4757467;55;21087;-44
2022/11/20 22:31:53;;;;;;;78.87;65.90;;;21.00;52.50;;;;;;4694635;59;21478;-43
2022/11/20 22:36:54;;;;;;;75.32;63.45;;;21.00;52.60;;;;;;4709294;55;21028;-39
2022/11/20 22:41:55;;;;;;;74.87;62.90;;;21.00;52.50;;;;;;4750132;55;21036;-43
2022/11/20 22:46:55;;;;;;;73.97;61.53;;;21.00;52.60;;;;;;4694933;59;21004;-36
2022/11/20 22:51:56;;;;;;;75.28;61.37;;;21.00;52.50;;;;;;4694895;59;20996;-45
2022/11/20 22:56:57;;;;;;;69.95;59.70;;;21.00;52.50;;;;;;4783981;55;21075;-35
2022/11/20 23:01:58;;;;;;;71.85;60.88;;;21.00;52.60;;;;;;4730617;55;21099;-37
2022/11/20 23:06:59;;;;;;;70.47;58.87;;;21.00;52.50;;;;;;4952083;55;20972;-47
2022/11/20 23:11:59;;;;;;;73.20;62.00;;;21.00;52.60;;;;;;4948564;55;21000;-42
2022/11/20 23:17:00;;;;;;;70.40;59.08;;;21.00;52.60;;;;;;4981064;55;21031;-44
2022/11/20 23:22:01;;;;;;;67.20;58.50;;;21.00;52.50;;;;;;4702002;55;21021;-46
2022/11/20 23:27:02;;;;;;;68.37;57.55;;;21.00;52.50;;;;;;5042451;55;21180;-38
2022/11/20 23:32:02;;;;;;;68.22;56.10;;;21.00;52.60;;;;;;5104914;55;21063;-43
2022/11/20 23:37:03;;;;;;;69.47;57.62;;;21.00;52.50;;;;;;4719701;55;21016;-43
2022/11/20 23:42:04;;;;;;;68.25;56.95;;;21.00;52.50;;;;;;4695234;55;21498;-45
2022/11/20 23:47:05;;;;;;;69.62;57.62;;;21.00;52.40;;;;;;4758300;55;21526;-44
2022/11/20 23:52:06;;;;;;;65.95;55.55;;;21.00;52.50;;;;;;4862091;55;21015;-39
2022/11/20 23:57:06;;;;;;;65.93;54.97;;;21.00;52.40;;;;;;4797276;55;21498;-42
